Time;durP1;ratioP1;P1;durP2;ratioP2;P2;SDS_P1;SDS_P2;PMS_P1;PMS_P2;Temp;Humidity;BMP_temperature;BMP_pressure;BME280_temperature;BME280_humidity;BME280_pressure;Samples;Min_cycle;Max_cycle;Signal;HPM_P1;HPM_P2
2023/12/14 00:02:14;;;;;;;17.33;12.60;;;;;;;6.95;66.55;93904.88;4983442;28;20227;-70
2023/12/14 00:04:41;;;;;;;18.33;13.47;;;;;;;7.14;66.15;93903.78;4992353;28;20301;-72
2023/12/14 00:07:06;;;;;;;17.40;13.93;;;;;;;7.01;66.08;93935.59;4988901;28;20233;-69
2023/12/14 00:09:31;;;;;;;15.27;11.93;;;;;;;6.90;66.74;93886.22;4989890;28;20187;-71
2023/12/14 00:11:57;;;;;;;17.57;12.97;;;;;;;6.81;66.95;93910.66;4992371;28;20217;-69
2023/12/14 00:14:22;;;;;;;15.80;12.20;;;;;;;6.97;66.76;93886.41;4991721;28;20230;-72
2023/12/14 00:16:49;;;;;;;14.57;11.63;;;;;;;6.88;66.76;93911.69;4986765;28;20227;-70
2023/12/14 00:19:14;;;;;;;19.03;13.37;;;;;;;6.90;66.62;93885.41;4988821;28;20288;-73
2023/12/14 00:21:40;;;;;;;15.00;11.87;;;;;;;7.00;66.38;93939.19;4984888;28;20199;-72
2023/12/14 00:24:06;;;;;;;15.60;12.77;;;;;;;6.71;67.29;93915.19;4986875;28;20195;-71
2023/12/14 00:26:31;;;;;;;14.30;11.27;;;;;;;6.81;67.15;93911.47;4972045;28;20241;-70
2023/12/14 00:28:57;;;;;;;14.53;11.60;;;;;;;6.75;67.26;93929.59;4984904;28;20372;-73
2023/12/14 00:31:22;;;;;;;17.63;12.40;;;;;;;6.75;67.39;93898.22;4987414;28;20227;-70
2023/12/14 00:33:48;;;;;;;16.87;12.40;;;;;;;6.88;66.93;93906.47;4990176;28;20270;-70
2023/12/14 00:36:20;;;;;;;15.10;11.53;;;;;;;6.94;66.78;93908.44;4989067;28;20179;-70
2023/12/14 00:38:46;;;;;;;15.10;11.83;;;;;;;6.92;67.00;93912.19;4985234;28;20220;-72
2023/12/14 00:41:11;;;;;;;15.80;11.77;;;;;;;6.99;66.90;93906.19;4994129;28;20226;-70
2023/12/14 00:43:38;;;;;;;15.60;12.40;;;;;;;6.92;66.51;93918.22;4991729;28;20261;-70
2023/12/14 00:46:03;;;;;;;18.07;12.20;;;;;;;6.82;67.10;93900.06;4986707;28;20223;-70
2023/12/14 00:48:29;;;;;;;14.17;12.03;;;;;;;6.87;67.04;93944.03;4991383;28;20187;-70
2023/12/14 00:50:54;;;;;;;18.43;13.33;;;;;;;6.38;68.50;93907.16;4969072;28;20220;-69
2023/12/14 00:53:20;;;;;;;16.93;13.47;;;;;;;6.60;68.13;93903.19;4982428;28;20227;-71
2023/12/14 00:55:45;;;;;;;18.77;12.90;;;;;;;6.76;67.76;93905.94;4984910;28;20223;-72
2023/12/14 00:58:14;;;;;;;16.67;13.03;;;;;;;6.61;67.31;93904.84;4975931;28;20265;-72
2023/12/14 01:00:41;;;;;;;16.80;13.67;;;;;;;6.59;67.93;93891.13;4976612;28;20219;-71
2023/12/14 01:03:06;;;;;;;14.00;12.50;;;;;;;6.74;67.73;93917.50;4971573;28;20180;-73
2023/12/14 01:05:32;;;;;;;14.97;12.43;;;;;;;6.76;67.36;93921.59;4970505;28;20243;-69
2023/12/14 01:07:57;;;;;;;15.43;12.83;;;;;;;6.69;67.52;93914.53;4967008;28;20230;-70
2023/12/14 01:10:23;;;;;;;15.73;11.73;;;;;;;6.80;67.15;93909.84;4974596;28;20368;-70
2023/12/14 01:12:48;;;;;;;14.53;11.60;;;;;;;6.99;67.09;93907.97;4988474;28;20321;-70
2023/12/14 01:15:14;;;;;;;17.03;12.03;;;;;;;6.68;67.14;93898.03;4984544;28;20199;-70
2023/12/14 01:17:39;;;;;;;15.57;10.93;;;;;;;6.53;68.03;93902.19;4970123;28;20228;-69
2023/12/14 01:20:06;;;;;;;15.07;11.50;;;;;;;6.69;67.47;93922.38;4970343;28;20226;-69
2023/12/14 01:22:32;;;;;;;13.43;10.47;;;;;;;6.70;67.64;93911.75;4981554;28;20218;-69
2023/12/14 01:24:57;;;;;;;15.40;11.80;;;;;;;6.70;67.52;93895.25;4989630;28;20206;-69
2023/12/14 01:27:23;;;;;;;15.43;11.93;;;;;;;6.91;67.14;93897.50;4988475;28;20214;-69
2023/12/14 01:29:48;;;;;;;14.77;11.53;;;;;;;6.80;66.94;93902.00;4990722;28;20271;-69
2023/12/14 01:32:14;;;;;;;14.77;10.97;;;;;;;6.67;67.27;93877.28;4992532;28;20255;-69
2023/12/14 01:34:39;;;;;;;14.30;11.23;;;;;;;6.74;67.31;93914.91;4989961;28;20314;-72
2023/12/14 01:37:05;;;;;;;15.80;11.57;;;;;;;6.50;67.96;93905.94;4992268;28;20330;-73
2023/12/14 01:39:30;;;;;;;17.17;12.30;;;;;;;6.63;67.84;93903.72;4992874;28;20227;-74
2023/12/14 01:41:55;;;;;;;14.30;12.33;;;;;;;6.60;67.71;93919.72;4984117;28;20443;-70
2023/12/14 01:44:21;;;;;;;14.13;12.40;;;;;;;6.30;68.64;93904.50;4973933;28;20231;-72
2023/12/14 01:46:46;;;;;;;13.97;12.20;;;;;;;6.46;68.16;93883.69;4992534;28;20247;-72
2023/12/14 01:49:12;;;;;;;14.83;12.57;;;;;;;6.45;68.40;93902.16;4989419;28;20306;-72
2023/12/14 01:51:37;;;;;;;14.33;12.80;;;;;;;6.49;68.37;93898.25;4993174;28;20213;-72
2023/12/14 01:54:02;;;;;;;16.83;13.07;;;;;;;6.37;68.79;93900.31;4992598;28;20222;-72
2023/12/14 01:56:28;;;;;;;20.53;13.57;;;;;;;6.26;68.92;93892.72;4987498;28;20218;-72
2023/12/14 01:58:53;;;;;;;16.73;13.90;;;;;;;6.45;68.90;93882.06;4989841;28;20219;-72
2023/12/14 02:01:44;;;;;;;20.57;13.90;;;;;;;6.28;68.94;93907.28;4991473;28;20238;-71
2023/12/14 02:04:10;;;;;;;16.20;13.87;;;;;;;6.34;68.76;93883.16;4987226;28;20321;-72
2023/12/14 02:06:36;;;;;;;16.70;14.57;;;;;;;6.12;69.47;93918.41;4990069;28;20235;-72
2023/12/14 02:09:02;;;;;;;15.93;14.23;;;;;;;6.07;69.81;93884.13;4974466;28;20250;-72
2023/12/14 02:11:28;;;;;;;15.63;13.30;;;;;;;6.16;69.71;93888.41;4987015;28;20273;-72
2023/12/14 02:13:53;;;;;;;17.37;13.60;;;;;;;6.07;69.89;93868.47;4987910;28;20222;-72
2023/12/14 02:16:19;;;;;;;14.33;12.47;;;;;;;6.26;69.32;93888.31;4990033;28;20383;-72
2023/12/14 02:18:45;;;;;;;17.13;11.83;;;;;;;6.36;69.17;93868.16;4986989;28;20218;-72
2023/12/14 02:21:10;;;;;;;13.57;11.53;;;;;;;6.58;68.36;93866.81;4991256;28;20229;-72
2023/12/14 02:23:43;;;;;;;14.43;10.93;;;;;;;6.72;67.91;93883.69;4988248;28;20210;-72
2023/12/14 02:26:08;;;;;;;12.50;11.20;;;;;;;6.55;68.17;93859.28;4991069;28;20226;-72
2023/12/14 02:28:34;;;;;;;15.10;11.67;;;;;;;6.57;68.45;93859.94;4979719;28;20224;-71
2023/12/14 02:30:59;;;;;;;12.60;10.40;;;;;;;6.67;68.11;93859.81;4967407;28;20183;-71
2023/12/14 02:33:25;;;;;;;13.57;10.97;;;;;;;6.62;67.95;93868.13;4987534;28;20175;-71
2023/12/14 02:35:50;;;;;;;15.27;11.40;;;;;;;6.72;67.46;93873.25;4989499;28;20223;-71
2023/12/14 02:38:15;;;;;;;15.13;11.40;;;;;;;6.75;67.29;93877.31;4990142;28;20246;-71
2023/12/14 02:40:41;;;;;;;11.67;10.13;;;;;;;6.71;67.16;93870.75;4980774;28;20227;-71
2023/12/14 02:43:06;;;;;;;13.07;10.63;;;;;;;6.60;67.75;93874.47;4989284;28;20179;-72
2023/12/14 02:45:32;;;;;;;14.67;10.93;;;;;;;6.52;68.12;93854.38;4992855;28;20241;-71
2023/12/14 02:47:57;;;;;;;15.23;10.70;;;;;;;6.51;68.18;93891.09;4993479;28;20226;-71
2023/12/14 02:50:22;;;;;;;12.77;10.97;;;;;;;6.27;68.50;93869.06;4985633;28;20223;-71
2023/12/14 02:52:48;;;;;;;14.70;9.80;;;;;;;6.51;68.15;93873.63;4979120;28;20227;-71
2023/12/14 02:55:13;;;;;;;10.77;8.43;;;;;;;6.58;68.01;93905.16;4966127;28;20223;-71
2023/12/14 02:57:39;;;;;;;11.13;9.20;;;;;;;6.69;67.93;93872.75;4967950;28;20215;-71
2023/12/14 03:00:05;;;;;;;14.87;10.03;;;;;;;6.60;68.36;93888.38;4973250;28;20322;-71
2023/12/14 03:02:30;;;;;;;13.87;9.60;;;;;;;6.66;68.16;93891.34;4971521;28;20223;-72
2023/12/14 03:04:56;;;;;;;11.17;8.33;;;;;;;6.83;67.31;93875.56;4978065;28;20249;-70
2023/12/14 03:07:21;;;;;;;13.27;9.13;;;;;;;6.65;67.47;93893.09;4970918;28;20310;-71
2023/12/14 03:09:48;;;;;;;12.40;10.20;;;;;;;6.69;67.59;93885.81;4971906;28;20214;-72
2023/12/14 03:12:13;;;;;;;10.90;9.47;;;;;;;6.65;67.59;93871.41;4973865;28;20227;-73
2023/12/14 03:14:40;;;;;;;10.43;8.43;;;;;;;6.46;68.28;93844.53;4962586;28;20294;-72
2023/12/14 03:17:06;;;;;;;12.30;8.97;;;;;;;6.73;67.51;93868.81;4973879;28;20222;-72
2023/12/14 03:19:32;;;;;;;11.90;8.57;;;;;;;6.52;67.95;93859.59;4986521;28;20222;-72
2023/12/14 03:21:57;;;;;;;9.47;8.40;;;;;;;6.70;67.85;93867.34;4987919;28;20198;-72
2023/12/14 03:24:23;;;;;;;12.47;8.60;;;;;;;6.78;67.33;93853.50;4971821;28;20187;-72
2023/12/14 03:26:48;;;;;;;11.77;8.40;;;;;;;6.74;67.75;93849.56;4982070;28;20230;-72
2023/12/14 03:29:14;;;;;;;10.40;8.57;;;;;;;6.70;67.30;93869.13;4990953;28;20293;-72
2023/12/14 03:31:40;;;;;;;8.60;7.67;;;;;;;6.71;68.15;93834.19;4973904;28;20219;-72
2023/12/14 03:34:05;;;;;;;9.23;7.80;;;;;;;6.69;67.62;93847.44;4972229;28;20191;-72
2023/12/14 03:36:31;;;;;;;9.93;8.23;;;;;;;6.80;67.48;93854.97;4983250;28;20194;-72
2023/12/14 03:38:56;;;;;;;10.20;8.10;;;;;;;6.73;67.28;93847.94;4989409;28;20223;-72
2023/12/14 03:41:21;;;;;;;8.23;7.40;;;;;;;6.79;67.52;93840.28;5006243;28;20243;-72
2023/12/14 03:43:47;;;;;;;10.07;8.10;;;;;;;6.71;67.85;93832.41;4985478;28;20219;-72
2023/12/14 03:46:12;;;;;;;10.33;7.77;;;;;;;6.85;67.52;93846.69;4991318;28;20231;-72
2023/12/14 03:48:38;;;;;;;10.30;7.63;;;;;;;6.82;67.36;93832.13;4993277;28;20282;-72
2023/12/14 03:51:04;;;;;;;8.83;7.93;;;;;;;6.95;67.07;93838.69;4990896;28;20218;-72
2023/12/14 03:53:30;;;;;;;9.03;7.50;;;;;;;6.77;67.58;93815.28;4990160;28;20222;-72
2023/12/14 03:55:55;;;;;;;12.47;7.60;;;;;;;6.71;67.93;93837.66;4992437;28;20256;-72
2023/12/14 03:58:21;;;;;;;11.13;7.20;;;;;;;6.54;68.41;93823.69;4990738;28;20241;-72
2023/12/14 04:00:47;;;;;;;7.87;6.70;;;;;;;6.75;67.85;93823.28;4988311;28;20237;-72
2023/12/14 04:03:12;;;;;;;8.43;7.57;;;;;;;6.88;67.31;93822.03;4991111;28;20222;-72
2023/12/14 04:05:38;;;;;;;8.73;7.07;;;;;;;6.87;67.41;93839.50;4989374;28;20271;-72
2023/12/14 04:08:04;;;;;;;8.33;6.93;;;;;;;6.89;67.49;93816.63;4993697;28;20226;-72
2023/12/14 04:10:30;;;;;;;8.70;6.97;;;;;;;6.92;66.92;93833.78;4989398;28;20222;-72
2023/12/14 04:12:55;;;;;;;8.67;7.10;;;;;;;6.61;68.15;93850.00;4991796;28;20186;-72
2023/12/14 04:15:21;;;;;;;9.20;7.23;;;;;;;6.67;67.88;93843.34;4970637;28;20205;-72
2023/12/14 04:17:46;;;;;;;12.07;8.37;;;;;;;6.93;67.41;93835.44;4981274;28;20231;-72
2023/12/14 04:20:14;;;;;;;10.63;7.17;;;;;;;6.89;67.51;93861.03;4993377;28;20230;-72
2023/12/14 04:22:39;;;;;;;10.80;7.63;;;;;;;6.33;69.26;93857.19;4989847;28;20233;-72
2023/12/14 04:25:05;;;;;;;9.10;7.27;;;;;;;6.45;69.16;93835.06;4992745;28;20281;-72
2023/12/14 04:27:30;;;;;;;9.20;7.70;;;;;;;6.57;68.68;93854.69;4984898;28;20208;-72
2023/12/14 04:29:56;;;;;;;9.63;7.40;;;;;;;6.69;68.27;93833.56;4988689;28;20237;-72
2023/12/14 04:32:21;;;;;;;11.30;7.40;;;;;;;6.75;68.25;93844.19;4993617;28;20239;-73
2023/12/14 04:34:47;;;;;;;12.43;7.57;;;;;;;6.75;68.13;93841.56;5007454;28;20314;-73
2023/12/14 04:37:12;;;;;;;9.37;7.60;;;;;;;6.85;67.85;93846.69;4991909;28;20242;-73
2023/12/14 04:39:38;;;;;;;8.23;7.17;;;;;;;6.84;67.69;93850.25;4994726;28;20321;-73
2023/12/14 04:42:03;;;;;;;7.87;6.63;;;;;;;6.98;67.48;93828.75;4973392;28;20353;-72
2023/12/14 04:44:28;;;;;;;9.07;7.67;;;;;;;6.80;67.76;93857.59;4983844;28;20246;-72
2023/12/14 04:46:54;;;;;;;7.90;7.00;;;;;;;6.71;68.32;93855.94;4993687;28;20577;-72
2023/12/14 04:49:19;;;;;;;11.03;7.40;;;;;;;6.81;68.40;93842.72;4990570;28;20215;-72
2023/12/14 04:51:45;;;;;;;9.90;7.37;;;;;;;6.79;68.15;93824.63;4989095;28;20190;-72
2023/12/14 04:54:10;;;;;;;7.77;6.57;;;;;;;6.80;68.07;93848.94;4983914;28;20288;-70
2023/12/14 04:56:36;;;;;;;8.90;6.97;;;;;;;6.69;68.64;93836.16;4988859;28;20226;-71
2023/12/14 04:59:02;;;;;;;10.77;7.53;;;;;;;6.73;68.29;93842.69;4990711;28;20233;-71
2023/12/14 05:01:27;;;;;;;7.60;6.53;;;;;;;6.87;68.03;93842.13;4989113;28;20254;-72
2023/12/14 05:03:53;;;;;;;8.63;6.53;;;;;;;6.75;68.09;93846.78;4989604;28;20195;-72
2023/12/14 05:06:19;;;;;;;7.73;6.80;;;;;;;6.79;68.00;93849.91;4992121;28;20246;-73
2023/12/14 05:08:44;;;;;;;8.23;6.07;;;;;;;6.86;67.74;93843.06;4988077;28;20306;-74
2023/12/14 05:11:10;;;;;;;8.10;6.40;;;;;;;6.90;67.69;93852.25;4989552;28;20225;-74
2023/12/14 05:13:35;;;;;;;6.87;6.00;;;;;;;7.05;67.11;93844.59;4986982;28;20219;-74
2023/12/14 05:16:00;;;;;;;9.57;7.00;;;;;;;7.09;66.82;93847.75;4989288;28;20187;-73
2023/12/14 05:18:27;;;;;;;8.87;6.53;;;;;;;6.97;67.29;93837.56;4991896;28;20183;-73
2023/12/14 05:20:53;;;;;;;14.50;6.93;;;;;;;7.01;66.85;93825.81;4984665;28;20227;-73
2023/12/14 05:23:19;;;;;;;9.93;7.37;;;;;;;7.00;67.34;93831.19;4986181;28;20215;-73
2023/12/14 05:25:44;;;;;;;9.07;6.80;;;;;;;7.06;67.04;93848.88;4985178;28;20262;-72
2023/12/14 05:28:10;;;;;;;10.07;7.77;;;;;;;6.74;67.93;93842.56;4983678;28;20239;-71
2023/12/14 05:30:35;;;;;;;10.50;7.57;;;;;;;6.73;67.85;93853.97;4979517;28;20176;-72
2023/12/14 05:33:01;;;;;;;9.73;7.23;;;;;;;6.88;67.58;93854.19;4990638;28;20231;-72
2023/12/14 05:35:27;;;;;;;11.67;7.83;;;;;;;6.93;67.51;93858.97;4990386;28;20223;-72
2023/12/14 05:37:52;;;;;;;9.60;7.80;;;;;;;6.88;67.22;93851.59;4975178;28;20253;-71
2023/12/14 05:40:17;;;;;;;11.10;7.83;;;;;;;6.97;67.30;93860.25;4993562;28;20231;-73
2023/12/14 05:42:43;;;;;;;10.97;8.93;;;;;;;6.90;67.59;93857.47;5005610;28;20188;-72
2023/12/14 05:45:09;;;;;;;15.57;8.67;;;;;;;6.90;67.20;93869.72;4973453;28;20339;-73
2023/12/14 05:47:34;;;;;;;12.43;9.13;;;;;;;6.89;67.04;93853.22;4980563;28;20226;-73
2023/12/14 05:50:04;;;;;;;12.23;8.73;;;;;;;6.86;67.53;93871.81;5004380;28;20219;-73
2023/12/14 05:52:29;;;;;;;9.70;7.63;;;;;;;6.67;68.19;93865.03;4992278;28;20232;-73
2023/12/14 05:54:55;;;;;;;9.40;8.10;;;;;;;6.81;67.89;93868.84;4990324;28;20186;-72
2023/12/14 05:57:20;;;;;;;11.43;8.83;;;;;;;6.47;68.78;93872.31;4982063;28;20230;-71
2023/12/14 05:59:45;;;;;;;11.93;8.60;;;;;;;6.54;68.77;93878.53;4990650;28;20323;-72
2023/12/14 06:02:11;;;;;;;13.03;9.47;;;;;;;6.52;69.30;93877.88;4986253;28;20223;-73
2023/12/14 06:04:36;;;;;;;11.43;9.17;;;;;;;6.74;68.30;93881.75;4990794;28;20226;-74
2023/12/14 06:07:02;;;;;;;11.70;8.73;;;;;;;6.67;68.67;93875.50;4988411;28;20278;-74
2023/12/14 06:09:36;;;;;;;10.80;8.33;;;;;;;6.75;68.07;93867.69;4993099;28;20183;-75
2023/12/14 06:12:04;;;;;;;10.10;7.90;;;;;;;6.89;67.72;93887.19;4988423;28;20277;-75
2023/12/14 06:14:30;;;;;;;11.33;9.00;;;;;;;6.83;68.03;93891.25;4989011;28;20230;-71
2023/12/14 06:16:56;;;;;;;13.07;9.57;;;;;;;6.70;68.47;93879.59;4982062;28;20226;-71
2023/12/14 06:19:21;;;;;;;13.97;9.73;;;;;;;6.55;69.34;93881.97;4972157;28;20223;-72
2023/12/14 06:21:48;;;;;;;11.73;9.63;;;;;;;6.87;68.73;93904.00;4983646;28;20616;-77
2023/12/14 06:24:13;;;;;;;16.43;10.13;;;;;;;6.84;68.32;93908.56;4990873;28;20222;-76
2023/12/14 06:26:43;;;;;;;10.50;8.10;;;;;;;6.83;68.26;93883.41;4983508;28;20223;-75
2023/12/14 06:29:09;;;;;;;13.37;9.23;;;;;;;6.78;68.42;93930.09;4986503;28;20226;-76
2023/12/14 06:31:35;;;;;;;16.77;9.60;;;;;;;6.60;69.30;93893.59;4988297;28;20222;-76
2023/12/14 06:34:03;;;;;;;12.63;9.50;;;;;;;6.87;68.51;93915.28;4984398;28;20253;-76
2023/12/14 06:36:29;;;;;;;12.73;8.67;;;;;;;6.96;68.21;93903.06;4989998;28;20245;-75
2023/12/14 06:38:55;;;;;;;10.70;8.53;;;;;;;7.08;67.67;93893.94;4987282;28;20222;-76
2023/12/14 06:41:22;;;;;;;10.23;8.63;;;;;;;7.13;67.32;93923.06;4986454;28;20223;-75
2023/12/14 06:43:48;;;;;;;14.50;7.30;;;;;;;7.29;66.71;93899.56;4986453;28;20215;-75
2023/12/14 06:46:14;;;;;;;13.33;8.10;;;;;;;7.32;66.55;93926.38;4991843;28;20214;-76
2023/12/14 06:48:40;;;;;;;9.83;7.43;;;;;;;7.40;66.38;93939.50;4990535;28;20186;-75
2023/12/14 06:51:05;;;;;;;9.43;7.77;;;;;;;7.56;65.17;93902.91;4988248;28;20219;-76
2023/12/14 06:53:31;;;;;;;7.63;6.83;;;;;;;7.67;64.77;93931.41;4987705;28;20305;-75
2023/12/14 06:55:56;;;;;;;8.57;7.33;;;;;;;7.68;64.71;93945.31;4989493;28;20237;-74
2023/12/14 06:58:22;;;;;;;10.37;8.07;;;;;;;7.72;64.33;93923.06;4990711;28;20237;-73
2023/12/14 07:00:47;;;;;;;9.90;8.60;;;;;;;7.54;64.69;93896.19;4992774;28;20206;-76
2023/12/14 07:03:13;;;;;;;10.27;9.07;;;;;;;7.73;64.47;93945.63;4992084;28;20298;-75
2023/12/14 07:05:39;;;;;;;11.27;8.93;;;;;;;7.73;64.42;93936.00;4986803;28;20398;-75
2023/12/14 07:08:04;;;;;;;10.70;8.60;;;;;;;7.78;64.10;93917.19;4974348;28;20296;-77
2023/12/14 07:10:30;;;;;;;10.10;8.37;;;;;;;7.88;64.08;93923.06;4973749;28;20234;-76
2023/12/14 07:12:56;;;;;;;14.07;9.40;;;;;;;7.95;63.75;93933.72;4986573;28;20182;-76
2023/12/14 07:15:21;;;;;;;10.73;8.70;;;;;;;8.14;62.96;93932.59;4990183;28;20187;-77
2023/12/14 07:17:47;;;;;;;10.40;8.53;;;;;;;8.13;62.88;93949.28;4992728;28;20309;-77
2023/12/14 07:20:12;;;;;;;11.13;9.03;;;;;;;8.09;63.09;93947.97;4982281;28;20234;-77
2023/12/14 07:22:38;;;;;;;10.13;8.27;;;;;;;8.13;62.72;93931.78;4961767;28;20231;-78
2023/12/14 07:25:04;;;;;;;9.53;8.40;;;;;;;8.07;62.75;93942.06;4974666;28;20225;-79
2023/12/14 07:27:29;;;;;;;10.87;8.33;;;;;;;8.07;63.26;93957.78;4982990;28;20214;-79
2023/12/14 07:29:55;;;;;;;11.27;8.40;;;;;;;8.20;62.67;93965.16;4988767;28;20230;-79
2023/12/14 07:32:21;;;;;;;12.33;8.73;;;;;;;8.20;62.87;93933.72;4983956;28;20267;-79
2023/12/14 07:34:47;;;;;;;14.67;9.07;;;;;;;8.29;62.74;93941.44;4984198;28;20294;-75
2023/12/14 07:37:12;;;;;;;12.20;8.33;;;;;;;8.32;62.86;93959.44;4983531;28;20288;-75
2023/12/14 07:39:38;;;;;;;11.90;7.70;;;;;;;8.42;62.48;93950.59;4985329;28;20205;-76
2023/12/14 07:42:04;;;;;;;14.23;9.37;;;;;;;8.48;61.89;93949.97;4983912;28;20222;-76
2023/12/14 07:44:29;;;;;;;16.23;9.87;;;;;;;8.58;61.76;93955.84;4959218;28;20223;-75
2023/12/14 07:46:56;;;;;;;12.50;8.80;;;;;;;8.66;61.57;93966.34;4977738;28;20218;-77
2023/12/14 07:49:23;;;;;;;12.97;9.43;;;;;;;8.59;61.62;93955.69;4986311;28;20310;-76
2023/12/14 07:51:49;;;;;;;11.17;8.57;;;;;;;8.70;61.51;93967.63;4982400;28;20187;-76
2023/12/14 07:54:15;;;;;;;14.63;8.70;;;;;;;8.83;60.90;93965.31;4980210;28;20233;-75
2023/12/14 07:56:40;;;;;;;13.97;8.77;;;;;;;8.83;61.36;93964.50;4985884;28;20309;-76
2023/12/14 07:59:07;;;;;;;11.47;8.80;;;;;;;8.89;61.28;93963.81;4976924;28;20311;-77
2023/12/14 08:01:35;;;;;;;13.20;8.93;;;;;;;8.95;61.21;93971.00;4971015;28;20238;-78
2023/12/14 08:04:01;;;;;;;10.63;8.87;;;;;;;8.93;60.92;93930.25;4992150;28;20237;-76
2023/12/14 08:06:26;;;;;;;10.73;7.63;;;;;;;8.93;61.21;93993.97;4988929;28;20258;-77
2023/12/14 08:08:52;;;;;;;7.43;6.40;;;;;;;8.99;60.43;93942.66;4979666;28;20303;-79
2023/12/14 08:11:17;;;;;;;10.40;6.10;;;;;;;9.01;60.31;93956.44;4982553;28;20226;-75
2023/12/14 08:13:43;;;;;;;7.10;6.40;;;;;;;8.99;60.26;93963.66;4972082;28;20251;-76
2023/12/14 08:16:08;;;;;;;12.47;6.30;;;;;;;9.21;59.74;93957.66;4965928;28;20234;-74
2023/12/14 08:18:34;;;;;;;13.93;7.10;;;;;;;9.23;59.93;93963.56;4986586;28;20221;-76
2023/12/14 08:20:59;;;;;;;11.37;6.93;;;;;;;9.38;59.45;93963.69;4990531;28;20222;-77
2023/12/14 08:23:27;;;;;;;10.13;6.43;;;;;;;9.42;59.33;93970.22;4983678;28;20250;-76
2023/12/14 08:25:56;;;;;;;9.93;6.40;;;;;;;9.39;59.61;93959.25;4989808;28;20230;-80
2023/12/14 08:28:25;;;;;;;9.90;6.40;;;;;;;9.55;59.04;93974.94;4992216;28;20742;-81
2023/12/14 08:30:51;;;;;;;8.40;7.50;;;;;;;9.49;58.57;93970.38;4986484;28;20201;-77
2023/12/14 08:33:17;;;;;;;10.17;7.13;;;;;;;9.55;58.76;93985.44;4990226;28;20195;-75
2023/12/14 08:35:42;;;;;;;8.57;6.97;;;;;;;9.62;58.55;93975.88;4991180;28;20237;-78
2023/12/14 08:38:08;;;;;;;12.03;8.87;;;;;;;9.63;58.77;93967.00;4991701;28;20223;-76
2023/12/14 08:40:33;;;;;;;17.97;11.80;;;;;;;9.75;58.70;93971.88;4994431;28;20263;-80
2023/12/14 08:42:59;;;;;;;15.60;8.50;;;;;;;9.81;58.82;93973.78;4994464;28;20186;-74
2023/12/14 08:45:24;;;;;;;16.00;7.43;;;;;;;9.85;58.78;93989.03;4989838;28;20196;-75
2023/12/14 08:47:50;;;;;;;9.57;7.13;;;;;;;9.83;58.54;93979.69;4993467;28;20225;-77
2023/12/14 08:50:15;;;;;;;9.63;7.00;;;;;;;10.03;57.91;93974.84;4987713;28;20219;-76
2023/12/14 08:52:41;;;;;;;8.87;6.93;;;;;;;9.98;58.00;93987.66;4972458;28;20270;-72
2023/12/14 08:55:08;;;;;;;14.77;6.53;;;;;;;9.91;57.81;93984.91;4982007;28;20269;-75
2023/12/14 08:57:34;;;;;;;7.70;6.33;;;;;;;10.03;57.78;93990.59;4990055;28;20187;-75
2023/12/14 08:59:59;;;;;;;16.57;7.13;;;;;;;9.96;57.69;93987.03;4988232;28;20231;-76
2023/12/14 09:02:25;;;;;;;13.77;6.60;;;;;;;10.00;57.98;93986.50;4989988;28;20265;-78
2023/12/14 09:04:51;;;;;;;13.90;8.57;;;;;;;10.07;57.67;93997.94;4987082;28;20243;-78
2023/12/14 09:07:17;;;;;;;13.00;9.70;;;;;;;10.17;57.37;93981.97;4987907;28;20226;-79
2023/12/14 09:09:42;;;;;;;11.83;7.47;;;;;;;10.27;57.00;93981.75;4990021;28;20187;-84
2023/12/14 09:12:08;;;;;;;13.23;7.30;;;;;;;10.43;56.94;93997.41;4984884;28;20260;-80
2023/12/14 09:14:33;;;;;;;11.40;6.63;;;;;;;10.37;56.82;93987.59;4992059;28;20219;-77
2023/12/14 09:16:58;;;;;;;15.83;9.20;;;;;;;10.34;56.86;93978.28;4990136;28;20276;-75
2023/12/14 09:19:24;;;;;;;12.20;7.27;;;;;;;10.44;56.65;93964.06;4990844;28;20234;-74
2023/12/14 09:21:49;;;;;;;10.67;6.33;;;;;;;10.60;56.76;93948.97;4984849;28;20210;-76
2023/12/14 09:24:15;;;;;;;9.30;5.60;;;;;;;10.65;56.47;93980.00;4991253;28;20214;-72
2023/12/14 09:26:40;;;;;;;8.83;6.03;;;;;;;10.54;56.23;93959.38;4986616;28;20239;-73
2023/12/14 09:29:06;;;;;;;12.27;6.77;;;;;;;10.53;56.29;93968.25;4985863;28;20304;-75
2023/12/14 09:31:32;;;;;;;14.13;6.63;;;;;;;10.76;55.84;93965.59;4987453;28;20220;-75
2023/12/14 09:33:57;;;;;;;11.73;6.20;;;;;;;10.69;56.24;93965.50;4984975;28;20202;-76
2023/12/14 09:36:24;;;;;;;11.73;8.35;;;;;;;10.71;55.72;93981.09;4989113;28;20231;-73
2023/12/14 09:38:49;;;;;;;6.47;5.43;;;;;;;10.85;55.35;93982.09;4991562;28;20223;-73
2023/12/14 09:41:14;;;;;;;9.00;5.70;;;;;;;10.91;55.36;93973.53;4987037;28;20230;-73
2023/12/14 09:43:40;;;;;;;11.10;5.97;;;;;;;10.84;55.66;93980.47;4986346;28;20211;-74
2023/12/14 09:46:07;;;;;;;8.87;5.77;;;;;;;10.89;55.39;93981.59;4990327;28;20182;-75
2023/12/14 09:48:33;;;;;;;9.93;5.60;;;;;;;10.93;55.13;93980.25;5001763;28;20273;-82
2023/12/14 09:50:58;;;;;;;8.37;5.77;;;;;;;11.04;54.81;93990.31;4987756;28;20269;-79
2023/12/14 09:53:24;;;;;;;10.17;5.63;;;;;;;11.13;54.67;93995.50;4991328;28;20253;-75
2023/12/14 09:55:49;;;;;;;12.50;6.23;;;;;;;11.36;54.36;93993.59;4983832;28;20223;-74
2023/12/14 09:58:15;;;;;;;54.47;11.17;;;;;;;11.38;54.39;93996.03;4977925;28;20234;-71
2023/12/14 10:00:41;;;;;;;28.20;7.60;;;;;;;11.16;54.86;94006.47;4989270;28;20653;-78
2023/12/14 10:03:27;;;;;;;8.43;6.40;;;;;;;11.21;54.62;94004.13;4984830;28;20227;-83
2023/12/14 10:05:53;;;;;;;9.63;6.10;;;;;;;11.17;54.50;93996.75;4982593;28;20235;-79
2023/12/14 10:08:19;;;;;;;12.70;5.97;;;;;;;11.16;54.64;93981.97;4987501;28;20308;-77
2023/12/14 10:10:48;;;;;;;8.60;5.87;;;;;;;11.12;55.15;93981.53;4990321;28;20219;-79
2023/12/14 10:13:14;;;;;;;13.03;6.10;;;;;;;11.16;54.69;93981.97;4983310;28;20653;-74
2023/12/14 10:15:44;;;;;;;10.60;6.20;;;;;;;11.17;54.54;93986.22;4993058;28;20190;-83
2023/12/14 10:18:10;;;;;;;11.57;5.60;;;;;;;11.19;54.38;93974.53;4989172;28;20282;-76
2023/12/14 10:20:37;;;;;;;10.37;6.00;;;;;;;11.15;54.64;93981.16;4985700;28;20309;-74
2023/12/14 10:23:06;;;;;;;9.30;5.70;;;;;;;11.17;54.88;93989.69;4983036;28;20228;-77
2023/12/14 10:25:32;;;;;;;8.70;5.70;;;;;;;11.13;54.68;93980.53;4987633;28;20229;-78
2023/12/14 10:27:57;;;;;;;7.93;5.43;;;;;;;11.17;54.42;93968.66;4985599;28;20206;-79
2023/12/14 10:30:23;;;;;;;10.67;5.60;;;;;;;11.20;54.63;93975.34;4990836;28;20183;-77
2023/12/14 10:32:48;;;;;;;8.35;5.38;;;;;;;11.24;54.62;93981.88;4990689;28;20241;-79
2023/12/14 10:35:16;;;;;;;10.50;5.50;;;;;;;11.27;54.42;93981.53;4987184;28;20222;-78
2023/12/14 10:37:42;;;;;;;8.80;6.03;;;;;;;11.30;54.39;93999.56;4986893;28;20222;-77
2023/12/14 10:40:12;;;;;;;12.13;6.10;;;;;;;11.32;54.60;93999.41;4987211;28;20206;-78
2023/12/14 10:42:41;;;;;;;10.40;6.10;;;;;;;11.32;54.28;94000.22;4988774;28;20197;-80
2023/12/14 10:45:10;;;;;;;12.40;6.70;;;;;;;11.38;54.42;94010.00;4987700;28;20227;-78
2023/12/14 10:47:35;;;;;;;12.52;6.65;;;;;;;11.39;54.29;93995.06;4987514;28;20226;-77
2023/12/14 10:50:02;;;;;;;9.17;7.27;;;;;;;11.30;55.13;94018.00;4984290;28;20237;-78
2023/12/14 10:52:28;;;;;;;10.10;6.83;;;;;;;11.49;56.59;94027.16;4987105;28;20242;-75
2023/12/14 10:55:00;;;;;;;13.20;7.63;;;;;;;11.27;57.21;94031.53;4994375;28;20222;-76
2023/12/14 10:57:25;;;;;;;11.10;8.10;;;;;;;11.25;57.62;94042.25;4989141;28;20199;-74
2023/12/14 10:59:58;;;;;;;13.80;8.20;;;;;;;11.25;58.50;94046.66;4990876;28;20230;-73
2023/12/14 11:02:24;;;;;;;12.30;8.57;;;;;;;11.20;59.75;94041.97;4988903;28;20232;-76
2023/12/14 11:04:58;;;;;;;10.87;7.80;;;;;;;11.17;61.32;94046.75;4977841;28;20258;-74
2023/12/14 11:07:44;;;;;;;11.37;7.53;;;;;;;10.99;62.67;94057.63;4974553;28;20238;-74
2023/12/14 11:10:09;;;;;;;11.27;6.60;;;;;;;10.92;63.26;94060.13;4974995;28;20231;-71
2023/12/14 11:12:35;;;;;;;9.27;5.80;;;;;;;10.81;63.71;94060.53;4984555;28;20171;-76
2023/12/14 11:15:00;;;;;;;7.73;5.57;;;;;;;10.76;64.25;94055.81;4985694;28;20227;-72
2023/12/14 11:17:26;;;;;;;6.13;5.27;;;;;;;10.68;63.82;94055.06;4986987;28;20895;-72
2023/12/14 11:19:53;;;;;;;7.00;4.63;;;;;;;10.57;64.05;94065.00;4984784;28;20231;-75
2023/12/14 11:22:27;;;;;;;8.27;5.00;;;;;;;10.38;64.69;94060.19;4989903;28;20581;-73
2023/12/14 11:24:55;;;;;;;5.73;3.90;;;;;;;10.35;63.92;94081.56;4985575;28;20535;-75
2023/12/14 11:27:26;;;;;;;8.83;3.53;;;;;;;10.22;63.46;94079.47;4983081;28;20214;-75